Time;durP1;ratioP1;P1;durP2;ratioP2;P2;SDS_P1;SDS_P2;PMS_P1;PMS_P2;Temp;Humidity;BMP_temperature;BMP_pressure;BME280_temperature;BME280_humidity;BME280_pressure;Samples;Min_cycle;Max_cycle;Signal;HPM_P1;HPM_P2
2022/04/17 00:00:39;;;;;;;10.77;7.45;;;4.00;82.20;;;;;;5024070;28;20021;-66
2022/04/17 00:03:07;;;;;;;11.18;7.40;;;3.80;82.50;;;;;;5028834;28;20032;-65
2022/04/17 00:05:35;;;;;;;10.73;7.47;;;3.80;82.80;;;;;;5044178;28;20022;-65
2022/04/17 00:08:04;;;;;;;12.60;7.72;;;3.80;82.70;;;;;;5024690;28;20069;-67
2022/04/17 00:10:30;;;;;;;10.10;6.90;;;3.70;82.90;;;;;;5018926;28;20026;-68
2022/04/17 00:12:57;;;;;;;10.27;7.00;;;3.70;83.10;;;;;;5016502;28;20437;-66
2022/04/17 00:15:24;;;;;;;10.70;7.10;;;3.60;83.20;;;;;;5019828;28;20663;-66
2022/04/17 00:17:50;;;;;;;10.38;6.97;;;3.60;83.00;;;;;;5022598;28;20025;-67
2022/04/17 00:20:17;;;;;;;10.10;6.75;;;3.70;82.50;;;;;;5013549;28;20030;-67
2022/04/17 00:22:44;;;;;;;9.77;7.50;;;3.70;82.50;;;;;;5025449;28;20021;-67
2022/04/17 00:25:11;;;;;;;11.95;6.55;;;3.70;82.40;;;;;;5022470;28;20479;-66
2022/04/17 00:27:40;;;;;;;11.68;8.07;;;3.70;82.30;;;;;;5024940;28;20026;-67
2022/04/17 00:30:08;;;;;;;12.13;6.75;;;3.70;82.20;;;;;;5024389;28;20030;-66
2022/04/17 00:32:36;;;;;;;11.40;7.10;;;3.60;82.20;;;;;;5032383;28;20029;-67
2022/04/17 00:35:05;;;;;;;10.80;6.82;;;3.60;82.20;;;;;;5024463;28;20244;-67
2022/04/17 00:37:31;;;;;;;12.30;6.85;;;3.60;82.20;;;;;;5033190;28;20036;-67
2022/04/17 00:39:57;;;;;;;10.52;6.65;;;3.50;82.50;;;;;;5028779;28;20116;-66
2022/04/17 00:42:23;;;;;;;13.63;6.80;;;3.40;82.50;;;;;;5031482;28;20028;-66
2022/04/17 00:44:49;;;;;;;10.45;7.05;;;3.40;82.30;;;;;;5022144;28;20034;-66
2022/04/17 00:47:18;;;;;;;9.73;6.85;;;3.40;82.50;;;;;;5028415;28;20492;-66
2022/04/17 00:49:45;;;;;;;11.50;6.88;;;3.40;82.50;;;;;;5029099;28;20588;-66
2022/04/17 00:52:11;;;;;;;12.90;7.70;;;3.20;82.90;;;;;;5024922;28;20067;-67
2022/04/17 00:54:44;;;;;;;13.27;6.80;;;3.10;83.10;;;;;;5024186;28;20040;-65
2022/04/17 00:57:17;;;;;;;10.48;6.68;;;3.10;83.50;;;;;;5029049;28;20025;-66
2022/04/17 00:59:45;;;;;;;11.27;7.47;;;3.10;83.30;;;;;;5028364;28;20041;-66
2022/04/17 01:02:16;;;;;;;10.38;6.85;;;3.10;83.50;;;;;;5029478;28;20056;-66
2022/04/17 01:04:43;;;;;;;12.18;6.85;;;3.10;83.70;;;;;;5026116;28;20021;-66
2022/04/17 01:07:12;;;;;;;10.43;7.38;;;3.00;84.10;;;;;;5034318;28;20334;-67
2022/04/17 01:09:39;;;;;;;12.23;7.97;;;3.00;84.00;;;;;;5023815;28;20057;-65
2022/04/17 01:12:08;;;;;;;10.52;7.22;;;3.10;83.50;;;;;;5032627;28;20444;-66
2022/04/17 01:14:39;;;;;;;11.10;7.05;;;3.20;83.40;;;;;;5019699;28;20053;-66
2022/04/17 01:17:06;;;;;;;11.00;7.68;;;3.30;82.90;;;;;;5033979;28;20053;-66
2022/04/17 01:19:37;;;;;;;9.95;7.13;;;3.30;83.00;;;;;;5025545;28;20398;-66
2022/04/17 01:22:08;;;;;;;11.45;7.50;;;3.20;83.30;;;;;;5025123;28;20044;-66
2022/04/17 01:27:22;;;;;;;12.43;7.28;;;3.20;83.00;;;;;;5032218;28;20087;-66
2022/04/17 01:29:50;;;;;;;9.10;6.93;;;3.10;83.20;;;;;;5026564;28;20088;-67
2022/04/17 01:32:17;;;;;;;12.82;7.18;;;3.20;83.10;;;;;;5028566;28;20056;-67
2022/04/17 01:34:43;;;;;;;11.65;7.63;;;3.10;83.00;;;;;;5026759;28;20037;-67
2022/04/17 01:37:10;;;;;;;11.57;6.72;;;3.10;83.00;;;;;;5027680;28;20032;-66
2022/04/17 01:39:36;;;;;;;11.40;7.03;;;3.00;83.20;;;;;;5020145;28;20099;-66
2022/04/17 01:42:02;;;;;;;12.35;7.28;;;3.00;83.10;;;;;;5024449;28;20105;-67
2022/04/17 01:44:32;;;;;;;11.55;7.45;;;3.00;83.00;;;;;;5024414;28;20028;-67
2022/04/17 01:47:01;;;;;;;13.27;7.32;;;3.00;82.90;;;;;;5024031;28;20373;-67
2022/04/17 01:49:27;;;;;;;11.70;7.35;;;3.00;82.80;;;;;;5029906;28;20021;-66
2022/04/17 01:51:53;;;;;;;9.80;6.32;;;3.00;82.80;;;;;;5021653;28;20029;-66
2022/04/17 01:54:20;;;;;;;9.18;7.00;;;3.00;82.90;;;;;;5019037;28;20022;-66
2022/04/17 01:56:49;;;;;;;10.75;6.32;;;3.00;82.90;;;;;;5024439;28;20025;-65
2022/04/17 01:59:17;;;;;;;10.98;6.60;;;3.00;82.70;;;;;;5020620;28;20029;-65
2022/04/17 02:01:43;;;;;;;10.88;7.43;;;3.00;82.70;;;;;;5019386;28;20053;-66
2022/04/17 02:04:10;;;;;;;10.82;6.50;;;3.00;83.00;;;;;;5021101;28;20319;-67
2022/04/17 02:06:41;;;;;;;11.02;7.63;;;3.00;82.80;;;;;;5024351;28;20021;-65
2022/04/17 02:09:09;;;;;;;10.70;6.90;;;3.00;82.80;;;;;;5027782;28;20303;-67
2022/04/17 02:11:35;;;;;;;10.40;6.82;;;3.00;82.80;;;;;;5024947;28;20025;-66
2022/04/17 02:14:01;;;;;;;10.00;6.30;;;2.90;82.90;;;;;;4978119;28;1603276;-65
2022/04/17 02:16:28;;;;;;;9.15;6.60;;;2.90;83.10;;;;;;5028177;28;20415;-65
2022/04/17 02:18:54;;;;;;;11.45;7.32;;;2.90;83.00;;;;;;5033073;28;20042;-66
2022/04/17 02:21:21;;;;;;;9.05;6.63;;;2.90;82.80;;;;;;5021738;28;20045;-65
2022/04/17 02:23:47;;;;;;;10.90;7.28;;;3.00;82.80;;;;;;5027300;28;20106;-66
2022/04/17 02:26:16;;;;;;;11.00;7.00;;;2.90;82.80;;;;;;5031895;28;20434;-67
2022/04/17 02:28:43;;;;;;;10.18;7.03;;;2.90;82.90;;;;;;5033172;28;20029;-66
2022/04/17 02:31:10;;;;;;;11.20;7.05;;;2.90;83.00;;;;;;5031619;28;20353;-66
2022/04/17 02:33:37;;;;;;;15.45;7.18;;;2.90;83.00;;;;;;5018635;28;20060;-66
2022/04/17 02:36:04;;;;;;;9.95;6.95;;;2.90;83.00;;;;;;5019749;28;20044;-65
2022/04/17 02:38:30;;;;;;;11.30;6.82;;;2.90;83.10;;;;;;5016692;28;20086;-66
2022/04/17 02:40:56;;;;;;;9.27;6.70;;;2.80;83.20;;;;;;5014406;28;20300;-66
2022/04/17 02:43:22;;;;;;;9.38;6.43;;;2.80;83.30;;;;;;5020589;28;20139;-66
2022/04/17 02:45:50;;;;;;;9.98;6.97;;;2.80;83.30;;;;;;5017292;28;20418;-66
2022/04/17 02:48:16;;;;;;;9.63;6.78;;;2.80;83.40;;;;;;5020152;28;20123;-67
2022/04/17 02:50:42;;;;;;;10.68;6.45;;;2.70;83.40;;;;;;5022297;28;20207;-67
2022/04/17 02:53:07;;;;;;;9.65;6.57;;;2.70;83.40;;;;;;5046348;28;20029;-67
2022/04/17 02:55:33;;;;;;;9.40;6.53;;;2.70;83.50;;;;;;5017452;28;20096;-67
2022/04/17 02:57:59;;;;;;;10.32;6.70;;;2.70;83.50;;;;;;5018587;28;20042;-66
2022/04/17 03:00:26;;;;;;;9.00;6.57;;;2.70;83.80;;;;;;5024711;28;20041;-67
2022/04/17 03:05:37;;;;;;;10.57;6.50;;;2.70;83.70;;;;;;5019037;28;20033;-67
2022/04/17 03:08:08;;;;;;;9.27;6.70;;;2.70;83.40;;;;;;5023286;28;20099;-67
2022/04/17 03:10:38;;;;;;;8.75;6.57;;;2.70;83.40;;;;;;5026260;28;20021;-67
2022/04/17 03:13:08;;;;;;;10.48;6.32;;;2.70;83.30;;;;;;5028048;28;20033;-67
2022/04/17 03:15:37;;;;;;;9.07;5.93;;;2.70;83.10;;;;;;5032238;28;20135;-67
2022/04/17 03:18:04;;;;;;;8.85;6.10;;;2.70;83.20;;;;;;5040597;28;20486;-67
2022/04/17 03:20:30;;;;;;;11.57;6.25;;;2.70;83.10;;;;;;5024451;28;20064;-68
2022/04/17 03:22:56;;;;;;;9.43;5.80;;;2.80;82.70;;;;;;5025301;28;20436;-67
2022/04/17 03:25:23;;;;;;;9.40;5.88;;;2.80;82.70;;;;;;5026837;28;20048;-66
2022/04/17 03:27:49;;;;;;;9.52;6.18;;;2.70;82.70;;;;;;5029735;28;20325;-66
2022/04/17 03:30:16;;;;;;;11.32;6.18;;;2.60;83.20;;;;;;5030940;28;20112;-67
2022/04/17 03:32:43;;;;;;;9.90;6.13;;;2.60;83.20;;;;;;5026318;28;20021;-69
2022/04/17 03:35:10;;;;;;;9.43;5.90;;;2.70;82.90;;;;;;5029414;28;20108;-67
2022/04/17 03:37:36;;;;;;;8.82;5.50;;;2.70;82.90;;;;;;5028505;28;20072;-67
2022/04/17 03:40:02;;;;;;;9.07;5.90;;;2.70;82.70;;;;;;5032584;28;20026;-68
2022/04/17 03:42:27;;;;;;;9.73;5.80;;;2.70;82.60;;;;;;5028841;28;20026;-67
2022/04/17 03:44:54;;;;;;;10.73;5.78;;;2.70;82.60;;;;;;5031403;28;20109;-67
2022/04/17 03:47:19;;;;;;;8.75;5.40;;;2.70;82.60;;;;;;5031864;28;20028;-67
2022/04/17 03:49:45;;;;;;;8.43;5.60;;;2.70;82.70;;;;;;5030649;28;20415;-67
2022/04/17 03:52:11;;;;;;;11.93;6.43;;;2.70;82.80;;;;;;5032324;28;20373;-70
2022/04/17 03:54:37;;;;;;;10.48;6.07;;;2.70;82.70;;;;;;5021558;28;20037;-68
2022/04/17 03:57:03;;;;;;;9.20;5.78;;;2.70;82.60;;;;;;5018824;28;20043;-68
2022/04/17 03:59:31;;;;;;;8.77;5.93;;;2.70;82.70;;;;;;5028666;28;20438;-67
2022/04/17 04:01:58;;;;;;;8.43;5.32;;;2.70;82.70;;;;;;5029310;28;20104;-67
2022/04/17 04:04:23;;;;;;;7.47;4.97;;;2.70;82.60;;;;;;5033248;28;20169;-66
2022/04/17 04:06:50;;;;;;;9.30;5.30;;;2.80;82.40;;;;;;5034534;28;20389;-66
2022/04/17 04:09:16;;;;;;;8.07;5.40;;;2.80;82.00;;;;;;5027161;28;20029;-67
2022/04/17 04:11:43;;;;;;;8.43;4.97;;;2.80;82.10;;;;;;5033298;28;20021;-67
2022/04/17 04:14:10;;;;;;;11.60;6.45;;;2.70;82.20;;;;;;5033045;28;20021;-67
2022/04/17 04:16:39;;;;;;;8.85;5.88;;;2.70;82.50;;;;;;5029055;28;20438;-69
2022/04/17 04:19:05;;;;;;;8.43;5.10;;;2.70;82.50;;;;;;5023196;28;20034;-67
2022/04/17 04:21:31;;;;;;;9.82;5.53;;;2.60;82.60;;;;;;5026271;28;20018;-67
2022/04/17 04:23:57;;;;;;;7.55;5.30;;;2.50;82.90;;;;;;5030831;28;20105;-68
2022/04/17 04:26:22;;;;;;;7.60;5.53;;;2.40;83.10;;;;;;5031253;28;20030;-67
2022/04/17 04:28:48;;;;;;;11.75;6.05;;;2.40;83.60;;;;;;5030272;28;20061;-67
2022/04/17 04:31:16;;;;;;;7.72;5.43;;;2.40;83.70;;;;;;5041959;28;20033;-67
2022/04/17 04:33:43;;;;;;;7.75;5.70;;;2.30;83.70;;;;;;5023825;28;20038;-67
2022/04/17 04:36:11;;;;;;;10.15;5.53;;;2.30;84.10;;;;;;5024259;28;20079;-68
2022/04/17 04:38:38;;;;;;;9.57;5.70;;;2.20;84.30;;;;;;5024707;28;20033;-68
2022/04/17 04:41:04;;;;;;;9.85;5.63;;;2.20;84.40;;;;;;5028773;28;20033;-68
2022/04/17 04:43:30;;;;;;;9.25;5.95;;;2.30;84.00;;;;;;5027333;28;20025;-68
2022/04/17 04:46:11;;;;;;;10.70;5.60;;;2.40;83.70;;;;;;5023892;28;20029;-67
2022/04/17 04:51:26;;;;;;;9.23;5.68;;;2.50;83.50;;;;;;5023090;28;20140;-66
2022/04/17 04:53:53;;;;;;;10.20;5.50;;;2.40;83.80;;;;;;5029214;28;20025;-66
2022/04/17 04:56:19;;;;;;;9.07;5.78;;;2.30;84.10;;;;;;5019362;28;20069;-66
2022/04/17 04:58:45;;;;;;;7.80;5.65;;;2.20;84.60;;;;;;5025838;28;20034;-68
2022/04/17 05:01:12;;;;;;;8.25;5.57;;;2.20;84.60;;;;;;5030274;28;20025;-68
2022/04/17 05:03:38;;;;;;;7.30;5.10;;;2.20;84.70;;;;;;5024891;28;20021;-68
2022/04/17 05:06:07;;;;;;;10.13;5.72;;;2.30;84.60;;;;;;5022811;28;20037;-68
2022/04/17 05:08:34;;;;;;;9.45;5.82;;;2.50;84.20;;;;;;5025197;28;20075;-68
2022/04/17 05:10:59;;;;;;;9.30;5.82;;;2.50;84.00;;;;;;5027063;28;20497;-67
2022/04/17 05:13:25;;;;;;;8.95;6.00;;;2.60;83.70;;;;;;5022674;28;20116;-67
2022/04/17 05:15:51;;;;;;;8.15;5.60;;;2.60;83.70;;;;;;5023475;28;20045;-68
2022/04/17 05:18:20;;;;;;;8.90;5.25;;;2.50;84.00;;;;;;5027202;28;20033;-67
2022/04/17 05:20:45;;;;;;;9.00;5.85;;;2.60;84.00;;;;;;5026117;28;20381;-68
2022/04/17 05:23:29;;;;;;;10.23;5.88;;;2.60;83.80;;;;;;5026607;28;20022;-67
2022/04/17 05:25:57;;;;;;;8.13;5.87;;;2.60;84.10;;;;;;5017979;28;20028;-68
2022/04/17 05:28:23;;;;;;;8.55;5.72;;;2.60;84.10;;;;;;5021773;28;20025;-67
2022/04/17 05:30:50;;;;;;;10.20;5.65;;;2.70;83.30;;;;;;5024462;28;20307;-68
2022/04/17 05:33:20;;;;;;;8.77;5.60;;;2.80;82.80;;;;;;5021523;28;20736;-67
2022/04/17 05:35:47;;;;;;;11.18;6.07;;;2.90;82.40;;;;;;5034460;28;20029;-68
2022/04/17 05:38:13;;;;;;;9.50;6.75;;;3.00;82.00;;;;;;5029620;28;20098;-68
2022/04/17 05:40:41;;;;;;;9.30;5.65;;;3.00;82.10;;;;;;5027132;28;20079;-68
2022/04/17 05:43:07;;;;;;;9.60;5.63;;;3.10;82.00;;;;;;5032272;28;20315;-67
2022/04/17 05:45:37;;;;;;;8.57;5.20;;;3.20;81.60;;;;;;5021780;28;20018;-67
2022/04/17 05:48:05;;;;;;;9.23;5.90;;;3.20;81.90;;;;;;5021518;28;20423;-68
2022/04/17 05:50:31;;;;;;;8.85;5.10;;;3.30;81.10;;;;;;5028956;28;20029;-67
2022/04/17 05:52:57;;;;;;;9.77;5.45;;;3.40;80.70;;;;;;5025177;28;20039;-68
2022/04/17 05:55:23;;;;;;;8.10;5.43;;;3.60;80.10;;;;;;5024190;28;20175;-66
2022/04/17 05:57:49;;;;;;;8.45;5.10;;;3.70;80.20;;;;;;5023116;28;20089;-67
2022/04/17 06:00:16;;;;;;;7.90;5.35;;;3.80;79.00;;;;;;5019599;28;20430;-68
2022/04/17 06:02:46;;;;;;;8.40;5.65;;;4.00;78.40;;;;;;5024994;28;20048;-67
2022/04/17 06:05:13;;;;;;;9.63;5.32;;;4.10;77.90;;;;;;5017098;28;20083;-68
2022/04/17 06:07:40;;;;;;;10.15;5.43;;;4.20;77.60;;;;;;5018596;28;20529;-66
2022/04/17 06:10:08;;;;;;;8.35;5.45;;;4.30;77.40;;;;;;5022736;28;20180;-69
2022/04/17 06:12:35;;;;;;;8.00;5.13;;;4.30;77.70;;;;;;5026618;28;20025;-67
2022/04/17 06:15:01;;;;;;;8.68;5.45;;;4.40;77.70;;;;;;5026530;28;20430;-68
2022/04/17 06:17:26;;;;;;;8.65;5.13;;;4.50;77.30;;;;;;5019847;28;20159;-68
2022/04/17 06:19:52;;;;;;;9.98;5.43;;;4.50;77.00;;;;;;5027134;28;20075;-67
2022/04/17 06:22:18;;;;;;;8.13;5.03;;;4.70;76.20;;;;;;5025738;28;20058;-68
2022/04/17 06:24:45;;;;;;;8.32;5.13;;;4.80;76.20;;;;;;5021892;28;20034;-68
2022/04/17 06:27:10;;;;;;;8.00;5.05;;;4.80;75.80;;;;;;5016159;28;20037;-67
2022/04/17 06:29:36;;;;;;;8.23;5.10;;;4.90;75.80;;;;;;5026487;28;20029;-66
2022/04/17 06:32:02;;;;;;;10.05;5.22;;;5.00;75.40;;;;;;5026174;28;20041;-68
2022/04/17 06:34:28;;;;;;;8.50;5.35;;;5.10;74.90;;;;;;5021091;28;20582;-68
2022/04/17 06:36:55;;;;;;;6.78;4.97;;;5.20;74.80;;;;;;5027278;28;20148;-68
2022/04/17 06:39:20;;;;;;;9.23;5.00;;;5.30;74.30;;;;;;5021464;28;20211;-68
2022/04/17 06:41:46;;;;;;;7.03;4.80;;;5.40;74.30;;;;;;5028282;28;20064;-68
2022/04/17 06:44:13;;;;;;;10.40;5.78;;;5.60;74.40;;;;;;5023283;28;20415;-67
2022/04/17 06:46:39;;;;;;;7.35;4.75;;;5.60;73.70;;;;;;5025431;28;20029;-69
2022/04/17 06:49:07;;;;;;;9.02;4.85;;;5.70;73.30;;;;;;5030449;28;20033;-68
2022/04/17 06:51:33;;;;;;;8.75;5.63;;;5.70;74.00;;;;;;5026686;28;20104;-68
2022/04/17 06:53:58;;;;;;;8.32;4.72;;;5.80;73.20;;;;;;5025513;28;20191;-68
2022/04/17 06:56:24;;;;;;;9.63;5.00;;;5.90;72.60;;;;;;5021681;28;20339;-68
2022/04/17 06:58:50;;;;;;;7.82;4.63;;;5.90;72.50;;;;;;5018837;28;20158;-68
2022/04/17 07:01:16;;;;;;;8.55;4.53;;;6.00;72.30;;;;;;5024873;28;20104;-68
2022/04/17 07:03:42;;;;;;;9.20;4.35;;;6.10;72.50;;;;;;5030200;28;20026;-67
2022/04/17 07:06:08;;;;;;;7.32;4.35;;;6.10;71.60;;;;;;5020770;28;20558;-68
2022/04/17 07:08:34;;;;;;;7.97;5.28;;;6.20;71.40;;;;;;5021466;28;20029;-68
2022/04/17 07:11:00;;;;;;;7.90;4.45;;;6.30;71.50;;;;;;5027573;28;20026;-67
2022/04/17 07:13:26;;;;;;;8.05;4.90;;;6.40;70.60;;;;;;5023395;28;20380;-68
2022/04/17 07:15:52;;;;;;;9.75;4.70;;;6.40;71.00;;;;;;5021815;28;20050;-68
2022/04/17 07:18:18;;;;;;;7.35;4.07;;;6.50;70.90;;;;;;5025968;28;20113;-69
2022/04/17 07:20:47;;;;;;;6.68;4.20;;;6.60;70.50;;;;;;5021241;28;20038;-67
2022/04/17 07:23:13;;;;;;;6.55;4.57;;;6.80;70.20;;;;;;5026660;28;20032;-67
2022/04/17 07:25:38;;;;;;;7.88;4.75;;;6.80;69.70;;;;;;5023500;28;20037;-67
2022/04/17 07:28:05;;;;;;;8.10;4.55;;;7.00;69.90;;;;;;5024842;28;20026;-67
2022/04/17 07:30:32;;;;;;;7.45;4.10;;;7.00;68.60;;;;;;5029461;28;20022;-67
2022/04/17 07:32:59;;;;;;;6.72;4.20;;;7.10;69.50;;;;;;5028539;28;21089;-67
2022/04/17 07:35:27;;;;;;;9.13;4.18;;;7.30;68.70;;;;;;5026277;28;20151;-67
2022/04/17 07:37:57;;;;;;;7.90;4.07;;;7.40;68.80;;;;;;5019898;28;20087;-66
2022/04/17 07:40:28;;;;;;;8.25;4.07;;;7.60;68.10;;;;;;5032260;28;20061;-67
2022/04/17 07:42:58;;;;;;;6.43;4.20;;;7.70;67.10;;;;;;5024016;28;20022;-66
2022/04/17 07:45:25;;;;;;;6.72;4.10;;;7.80;66.50;;;;;;5026947;28;20017;-66
2022/04/17 07:47:51;;;;;;;7.85;4.35;;;7.80;66.50;;;;;;5026975;28;20036;-65
2022/04/17 07:50:23;;;;;;;7.00;4.00;;;7.80;67.10;;;;;;5028842;28;20037;-65
2022/04/17 07:52:49;;;;;;;6.47;3.78;;;8.10;67.50;;;;;;5041249;28;20434;-65
2022/04/17 07:55:16;;;;;;;5.65;3.22;;;8.50;66.20;;;;;;5021480;28;20335;-68
2022/04/17 08:00:32;;;;;;;6.28;2.65;;;10.90;62.50;;;;;;5021790;28;20040;-67
2022/04/17 08:03:20;;;;;;;5.25;3.00;;;12.40;59.50;;;;;;5024780;28;21207;-67
2022/04/17 08:05:46;;;;;;;6.10;2.80;;;12.90;56.40;;;;;;5024815;28;20112;-67
2022/04/17 08:08:12;;;;;;;6.60;3.10;;;12.60;55.10;;;;;;5020927;28;20088;-68
2022/04/17 08:10:39;;;;;;;7.88;2.78;;;12.50;54.70;;;;;;5032515;28;20029;-67
2022/04/17 08:13:05;;;;;;;7.10;3.35;;;12.50;55.90;;;;;;5022743;28;20087;-68
2022/04/17 08:15:31;;;;;;;5.93;3.05;;;12.80;55.30;;;;;;5024949;28;20042;-68
2022/04/17 08:17:58;;;;;;;6.18;2.75;;;12.60;55.00;;;;;;5021798;28;20033;-68
2022/04/17 08:20:25;;;;;;;9.30;3.42;;;12.60;54.60;;;;;;5021984;28;20083;-67
2022/04/17 08:22:50;;;;;;;5.40;3.00;;;12.70;54.10;;;;;;5025557;28;20029;-68
2022/04/17 08:25:16;;;;;;;5.90;2.80;;;13.10;55.00;;;;;;5022893;28;20048;-67
2022/04/17 08:27:50;;;;;;;8.30;3.00;;;13.30;54.00;;;;;;5022572;28;20032;-68
2022/04/17 08:30:35;;;;;;;7.63;3.15;;;13.70;53.60;;;;;;5022274;28;20038;-68
2022/04/17 08:33:03;;;;;;;6.75;2.70;;;13.30;52.20;;;;;;5024854;28;20426;-67
2022/04/17 08:35:29;;;;;;;6.20;2.45;;;13.50;54.50;;;;;;5020945;28;20040;-68
2022/04/17 08:38:02;;;;;;;5.82;2.80;;;14.50;51.20;;;;;;5024498;28;20163;-68
2022/04/17 08:40:29;;;;;;;6.03;2.67;;;14.60;51.90;;;;;;5022292;28;20104;-68
2022/04/17 08:42:56;;;;;;;5.75;2.83;;;14.80;51.90;;;;;;5029390;28;20411;-68
2022/04/17 08:45:23;;;;;;;6.05;2.63;;;15.00;51.40;;;;;;5026153;28;20032;-68
2022/04/17 08:47:50;;;;;;;5.53;2.58;;;15.20;51.10;;;;;;5028004;28;20105;-67
2022/04/17 08:50:18;;;;;;;5.05;2.35;;;15.20;51.40;;;;;;5025345;28;20041;-69
2022/04/17 08:52:52;;;;;;;4.60;2.45;;;15.60;51.30;;;;;;5029314;28;20124;-65
2022/04/17 08:55:19;;;;;;;4.30;2.33;;;15.60;49.20;;;;;;5023884;28;20426;-67
2022/04/17 08:57:44;;;;;;;5.35;2.20;;;15.60;49.90;;;;;;5018082;28;20030;-68
2022/04/17 09:00:17;;;;;;;4.82;2.10;;;16.00;50.30;;;;;;5020427;28;20279;-68
2022/04/17 09:02:45;;;;;;;5.20;2.63;;;16.70;48.10;;;;;;5017592;28;20042;-67
2022/04/17 09:05:12;;;;;;;5.03;2.75;;;16.50;49.30;;;;;;5030203;28;20358;-67
2022/04/17 09:07:43;;;;;;;3.97;2.05;;;16.70;47.40;;;;;;5028172;28;20124;-68
2022/04/17 09:10:09;;;;;;;4.95;2.33;;;16.10;48.80;;;;;;5019557;28;20060;-68
2022/04/17 09:12:35;;;;;;;4.22;2.20;;;16.40;49.10;;;;;;5025338;28;20026;-68
2022/04/17 09:15:03;;;;;;;4.28;2.25;;;16.50;49.10;;;;;;5026766;28;20045;-67
2022/04/17 09:17:31;;;;;;;6.20;1.95;;;16.60;48.90;;;;;;5025237;28;20032;-68
2022/04/17 09:19:57;;;;;;;4.18;1.95;;;16.70;46.60;;;;;;5024592;28;20026;-68
2022/04/17 09:22:23;;;;;;;4.68;2.00;;;16.40;46.40;;;;;;5021181;28;20416;-67
2022/04/17 09:24:48;;;;;;;3.95;2.00;;;16.70;47.10;;;;;;5021211;28;20116;-68
2022/04/17 09:27:14;;;;;;;4.20;1.90;;;17.00;46.80;;;;;;5025034;28;20044;-67
2022/04/17 09:29:40;;;;;;;5.55;1.90;;;17.60;46.50;;;;;;5025085;28;20021;-68
2022/04/17 09:32:11;;;;;;;4.97;1.98;;;17.60;46.70;;;;;;5023842;28;20075;-67
2022/04/17 09:34:52;;;;;;;4.00;1.92;;;17.30;45.70;;;;;;5019692;28;20033;-67
2022/04/17 09:37:23;;;;;;;3.85;1.80;;;16.50;44.30;;;;;;5023949;28;20041;-68
2022/04/17 09:39:54;;;;;;;4.65;1.60;;;16.00;45.10;;;;;;5018904;28;20033;-67
2022/04/17 09:42:24;;;;;;;4.45;1.73;;;16.10;44.70;;;;;;5022408;28;20029;-67
2022/04/17 09:44:55;;;;;;;4.20;2.30;;;16.70;46.10;;;;;;5024698;28;20022;-67
2022/04/17 09:47:28;;;;;;;3.75;1.92;;;16.40;44.60;;;;;;5021412;28;20048;-66
2022/04/17 09:50:03;;;;;;;4.30;1.60;;;16.30;45.60;;;;;;5018973;28;20029;-67
2022/04/17 09:52:35;;;;;;;4.90;1.73;;;16.30;45.00;;;;;;5024213;28;20095;-66
2022/04/17 09:55:02;;;;;;;3.88;1.83;;;16.40;43.80;;;;;;5036498;28;20033;-67
2022/04/17 09:57:32;;;;;;;5.05;1.67;;;16.50;43.90;;;;;;5026545;28;20033;-67
2022/04/17 10:00:18;;;;;;;3.92;1.60;;;16.50;44.70;;;;;;5013974;28;20180;-67
2022/04/17 10:02:46;;;;;;;3.55;1.70;;;15.90;44.70;;;;;;5031491;28;20429;-67
2022/04/17 10:05:14;;;;;;;4.22;1.80;;;16.20;46.40;;;;;;5030641;28;20065;-68
2022/04/17 10:07:48;;;;;;;3.85;1.83;;;16.90;46.20;;;;;;5017309;28;20374;-67
2022/04/17 10:10:16;;;;;;;3.65;1.60;;;17.30;44.80;;;;;;5023810;28;20037;-67
2022/04/17 10:12:45;;;;;;;3.35;1.60;;;17.30;44.70;;;;;;5021596;28;21430;-68
2022/04/17 10:15:11;;;;;;;4.47;1.70;;;17.40;43.80;;;;;;5032146;28;20052;-67
2022/04/17 10:17:39;;;;;;;3.75;1.83;;;17.20;43.40;;;;;;5027903;28;20112;-67
2022/04/17 10:20:12;;;;;;;4.32;2.00;;;17.30;44.80;;;;;;5023433;28;20030;-67
2022/04/17 10:22:54;;;;;;;3.88;1.90;;;17.40;45.00;;;;;;5018024;28;20025;-67
2022/04/17 10:25:22;;;;;;;4.20;1.70;;;17.80;45.20;;;;;;5020213;28;20029;-67
2022/04/17 10:28:00;;;;;;;3.30;1.60;;;18.50;45.30;;;;;;5032535;28;20030;-68
2022/04/17 10:30:59;;;;;;;5.22;2.15;;;18.90;43.20;;;;;;5031587;28;20878;-68
2022/04/17 10:33:41;;;;;;;4.95;1.60;;;18.60;42.40;;;;;;5029484;28;20768;-67
2022/04/17 10:36:27;;;;;;;4.10;1.80;;;18.00;43.00;;;;;;5029399;28;20041;-67
2022/04/17 10:39:13;;;;;;;4.95;1.88;;;17.80;42.50;;;;;;5025571;28;20025;-65
2022/04/17 10:41:41;;;;;;;4.45;2.05;;;17.60;42.40;;;;;;5027778;28;20076;-66
2022/04/17 10:44:11;;;;;;;4.20;1.92;;;18.10;42.70;;;;;;5022178;28;20422;-66
2022/04/17 10:46:50;;;;;;;5.82;2.00;;;18.20;42.70;;;;;;5028130;28;20096;-66
2022/04/17 10:49:19;;;;;;;3.85;1.73;;;18.40;43.20;;;;;;5016595;28;20492;-67
2022/04/17 10:51:56;;;;;;;4.30;1.92;;;19.00;43.30;;;;;;5021787;28;20291;-67
2022/04/17 10:54:45;;;;;;;2.90;1.48;;;19.20;40.60;;;;;;5016435;28;20029;-68
2022/04/17 10:57:11;;;;;;;4.25;1.70;;;19.30;41.40;;;;;;5015881;28;20059;-68
2022/04/17 10:59:40;;;;;;;4.00;1.58;;;19.60;41.50;;;;;;5016458;28;20039;-68
2022/04/17 11:02:08;;;;;;;4.18;1.60;;;19.30;40.50;;;;;;5023193;28;20109;-68
2022/04/17 11:04:37;;;;;;;3.03;1.50;;;18.70;40.20;;;;;;5034769;28;20041;-67
2022/04/17 11:07:06;;;;;;;4.47;1.90;;;18.70;43.30;;;;;;5036230;28;20735;-67
2022/04/17 11:09:36;;;;;;;3.88;1.70;;;18.70;43.20;;;;;;5035723;28;20034;-67
2022/04/17 11:12:17;;;;;;;3.85;1.70;;;18.30;42.10;;;;;;5036109;28;20330;-67
2022/04/17 11:15:01;;;;;;;3.25;1.60;;;18.40;43.50;;;;;;5035826;28;20041;-67
2022/04/17 11:17:31;;;;;;;5.63;1.95;;;18.40;43.80;;;;;;5019541;28;20033;-67
2022/04/17 11:20:00;;;;;;;3.83;1.80;;;17.90;42.70;;;;;;5026239;28;20128;-68
2022/04/17 11:22:32;;;;;;;3.65;1.80;;;18.00;44.20;;;;;;5035968;28;20096;-68
2022/04/17 11:24:58;;;;;;;3.28;1.40;;;18.50;45.50;;;;;;5035924;28;20120;-68
2022/04/17 11:27:49;;;;;;;3.25;1.55;;;19.00;44.60;;;;;;5035098;28;20022;-67
2022/04/17 11:30:18;;;;;;;4.78;2.03;;;19.10;41.70;;;;;;5035571;28;20087;-67
2022/04/17 11:32:47;;;;;;;3.78;1.60;;;19.00;43.20;;;;;;5035729;28;20660;-67
2022/04/17 11:35:18;;;;;;;3.67;1.50;;;19.00;43.90;;;;;;5034415;28;20112;-67
2022/04/17 11:37:53;;;;;;;4.20;1.70;;;18.90;42.90;;;;;;5035862;28;20018;-66
2022/04/17 11:40:20;;;;;;;3.70;1.85;;;18.80;41.80;;;;;;5031642;28;20033;-67
2022/04/17 11:42:51;;;;;;;3.20;1.40;;;18.40;44.80;;;;;;5015632;28;20075;-67
2022/04/17 11:45:25;;;;;;;4.10;1.95;;;18.70;42.80;;;;;;5015611;28;20030;-67
2022/04/17 11:47:54;;;;;;;4.07;1.90;;;18.70;45.20;;;;;;5034209;28;20327;-67
2022/04/17 11:50:23;;;;;;;4.20;1.83;;;18.40;43.50;;;;;;5033716;28;20418;-67
2022/04/17 11:52:50;;;;;;;3.90;2.00;;;18.40;43.30;;;;;;5035381;28;20423;-67
2022/04/17 11:55:16;;;;;;;3.95;1.70;;;18.20;46.00;;;;;;5030427;28;20025;-67
2022/04/17 11:57:41;;;;;;;4.53;2.20;;;18.10;44.90;;;;;;5015440;28;20374;-67
2022/04/17 12:00:08;;;;;;;3.83;2.10;;;18.00;43.70;;;;;;5016458;28;20042;-67
2022/04/17 12:02:34;;;;;;;4.03;1.98;;;17.70;46.30;;;;;;5015385;28;20026;-67
2022/04/17 12:05:08;;;;;;;4.20;2.20;;;17.60;46.30;;;;;;5028452;28;20096;-67
2022/04/17 12:07:33;;;;;;;;;;;17.60;46.60;;;;;;5035112;28;20338;-67
2022/04/17 12:10:07;;;;;;;2.95;1.70;;;17.40;46.70;;;;;;5034627;28;19909;-68
2022/04/17 12:12:41;;;;;;;4.45;2.00;;;17.40;45.70;;;;;;5034972;28;20031;-68
2022/04/17 12:15:09;;;;;;;4.55;2.00;;;17.50;47.50;;;;;;5026778;28;20450;-68
2022/04/17 12:17:37;;;;;;;4.15;1.75;;;17.60;46.30;;;;;;5034481;28;20331;-67
2022/04/17 12:20:08;;;;;;;3.40;1.77;;;17.50;46.70;;;;;;5033235;28;20083;-67
2022/04/17 12:22:36;;;;;;;3.67;1.70;;;17.20;46.90;;;;;;5034829;28;20093;-67
2022/04/17 12:25:02;;;;;;;3.10;1.50;;;17.40;46.10;;;;;;5033173;28;20029;-67
2022/04/17 12:27:28;;;;;;;4.22;1.60;;;16.60;44.70;;;;;;5034394;28;20091;-67
2022/04/17 12:29:56;;;;;;;3.55;1.33;;;16.70;44.50;;;;;;5034634;28;20025;-67
2022/04/17 12:32:24;;;;;;;3.88;1.52;;;16.80;45.20;;;;;;5034199;28;20100;-67
2022/04/17 12:35:01;;;;;;;3.17;1.40;;;17.00;44.20;;;;;;5033055;28;20033;-67
2022/04/17 12:37:28;;;;;;;3.47;1.50;;;17.40;44.90;;;;;;5034523;28;20456;-67
2022/04/17 12:40:10;;;;;;;4.25;1.73;;;17.60;42.70;;;;;;5034387;28;20033;-68
2022/04/17 12:42:36;;;;;;;3.15;1.48;;;17.50;43.00;;;;;;5033526;28;20033;-67
2022/04/17 12:45:04;;;;;;;3.70;1.20;;;17.20;43.10;;;;;;5030535;28;20025;-67
2022/04/17 12:47:32;;;;;;;4.15;1.50;;;17.60;44.00;;;;;;5032814;28;20322;-67
2022/04/17 12:50:12;;;;;;;2.50;1.23;;;18.10;43.20;;;;;;5023859;28;20060;-67
2022/04/17 12:52:37;;;;;;;3.33;1.30;;;18.20;42.80;;;;;;5032772;28;20030;-67
2022/04/17 12:55:10;;;;;;;2.97;1.40;;;18.30;41.70;;;;;;5015092;28;20034;-67
2022/04/17 12:57:41;;;;;;;5.35;1.40;;;18.70;43.60;;;;;;5016835;28;20071;-67
2022/04/17 13:00:16;;;;;;;2.75;1.40;;;18.50;42.20;;;;;;5034160;28;20590;-68
2022/04/17 13:02:42;;;;;;;3.85;1.52;;;17.60;41.80;;;;;;5033934;28;20025;-68
2022/04/17 13:05:08;;;;;;;2.45;1.30;;;16.90;42.60;;;;;;5032787;28;20404;-67
2022/04/17 13:07:36;;;;;;;2.88;1.48;;;16.60;43.20;;;;;;5031969;28;20037;-67